Airport ID:KSMD
Update Time (UTC):03/08/2020 09:48
Wind Speed (Knots):1
Wind Direction (Magnetic):240
Temperature (°C):17.4
Dew Point (°C):17.4
Humidity (%):100
Altimeter (inHg):29.96
Density Altitude (Feet):
Visibility (Miles):4
Clouds (Hundreds of feet):CLR
Present Weather:BR
METAR:METAR KSMD 030945Z AUTO 00000KT 3SM BR FEW120 17/17 A2996 RMK A01

The data displayed is for advisory purposes only and is not to be used for flight planning or operations.